Don Juan — WRB6521 — position and weather

sailwx.info

Track history (hours):
 
Tides and Currents Weather Stations Pressure Air Temp Water Temp Dewpoint Dewpoint Depression Visibility Wind Speed Wind Dir Waves Ship Positions

Don Juan

Owner: LYDDON, JOHN A, Bakersfield, CA. More information available from US FCC via Universal Licensing System and Coast Guard Vessel Documentation Center.

Last reported at 2015-Mar-30 01:33 UTC. Time now 2015-Mar-30 02:21 UTC.
Position N 33°37' W 117°55'.

Type: Pleasure craft. MMSI: 366328490.

Date/timePositionNaut miles runAvg speedWind from/ knotsBaromVisibWave heightAir tempDewpointWater temp
2015-Mar-30 01:33N 33°37' W 117°55'0 0.0
2015-Mar-30 00:32N 33°37' W 117°55'0 0.0
2015-Mar-29 22:32N 33°37' W 117°55'0 0.0
2015-Mar-29 21:32N 33°37' W 117°55'0 0.0
2015-Mar-29 20:30N 33°37' W 117°55'0 0.0
2015-Mar-29 18:32N 33°37' W 117°55'0 0.0
2015-Mar-29 17:08N 33°37' W 117°55'0 0.0
2015-Mar-29 14:26N 33°37' W 117°55'0 0.0
2015-Mar-29 07:09N 33°37' W 117°55'0 0.0
2015-Mar-29 06:33N 33°37' W 117°55'0 0.0
2015-Mar-29 05:33N 33°37' W 117°55'0 0.0
2015-Mar-29 04:33N 33°37' W 117°55'0 0.0
2015-Mar-29 03:33N 33°37' W 117°55'0 0.0
2015-Mar-29 02:29N 33°37' W 117°55'0 0.0
2015-Mar-29 01:08N 33°37' W 117°55'0 0.0
2015-Mar-29 00:32N 33°37' W 117°55'0 0.0
2015-Mar-28 23:32N 33°37' W 117°55'0 0.0
2015-Mar-28 22:26N 33°37' W 117°55'1 1.3
2015-Mar-28 21:33N 33°36' W 117°54'7 7.3
2015-Mar-28 20:34N 33°30' W 117°58'43 8.5
2015-Mar-28 15:31N 32°57' W 118°31'5 5.2
2015-Mar-28 14:33N 32°54' W 118°26'3 3.0
2015-Mar-28 13:33N 32°52' W 118°24'0 0.0
2015-Mar-28 12:30N 32°52' W 118°24'0 0.0
2015-Mar-28 11:24N 32°52' W 118°24'0 0.1
2015-Mar-28 10:27N 32°51' W 118°24'0 0.0
2015-Mar-28 09:09N 32°52' W 118°24'0 0.0
2015-Mar-28 08:24N 32°52' W 118°24'0 0.0
2015-Mar-28 07:33N 32°52' W 118°24'0 0.0
2015-Mar-28 06:30N 32°52' W 118°24'0 0.0
2015-Mar-28 05:32N 32°52' W 118°24'0 0.0
2015-Mar-28 04:03N 32°52' W 118°24'0 0.1
2015-Mar-28 03:33N 32°51' W 118°24'0 0.0
2015-Mar-28 02:33N 32°51' W 118°24'3 2.9
2015-Mar-28 01:33N 32°54' W 118°23'10 9.4
2015-Mar-28 00:33N 33°03' W 118°17'9 8.4
2015-Mar-27 23:26N 33°10' W 118°11'7 7.9
2015-Mar-27 22:33N 33°16' W 118°06'9 8.7
2015-Mar-27 21:31N 33°24' W 118°01'6 6.5
2015-Mar-27 20:33N 33°29' W 117°58'8 1.5
2015-Mar-27 15:17N 33°37' W 117°55'0 0.0
2015-Mar-27 11:11N 33°37' W 117°55'0 0.0
2015-Mar-27 10:11N 33°37' W 117°55'0 0.0
2015-Mar-27 09:05N 33°37' W 117°55'0 0.0
2015-Mar-27 08:11N 33°37' W 117°55'0 0.0
2015-Mar-27 07:29N 33°37' W 117°55'0 0.0
2015-Mar-27 06:05N 33°37' W 117°55'0 0.0
2015-Mar-27 05:29N 33°37' W 117°55'0 0.0
2015-Mar-27 04:11N 33°37' W 117°55'0 0.0
2015-Mar-26 22:23N 33°37' W 117°55'0 0.0
2015-Mar-26 19:05N 33°37' W 117°55'0 0.0
2015-Mar-26 17:29N 33°37' W 117°55'0 0.0
2015-Mar-26 12:05N 33°37' W 117°55'0 0.0
2015-Mar-26 11:11N 33°37' W 117°55'0 0.0
2015-Mar-26 10:23N 33°37' W 117°55'0 0.0
2015-Mar-26 05:17N 33°37' W 117°55'0 0.0
2015-Mar-26 04:29N 33°37' W 117°55'0 0.0
2015-Mar-25 02:26N 33°37' W 117°55'0 0.0
2015-Mar-25 01:08N 33°37' W 117°55'  
2015-Mar-21 04:13N 33°37' W 117°55'0 0.0
2015-Mar-20 22:16N 33°37' W 117°55'  
Track history (hours):
 
Tides and Currents Weather Stations Pressure Air Temp Water Temp Dewpoint Dewpoint Depression Visibility Wind Speed Wind Dir Waves Ship Positions

Don Juan

Owner: LYDDON, JOHN A, Bakersfield, CA. More information available from US FCC via Universal Licensing System and Coast Guard Vessel Documentation Center.

Last reported at 2015-Mar-30 01:33 UTC. Time now 2015-Mar-30 02:21 UTC.
Position N 33°37' W 117°55'.

Type: Pleasure craft. MMSI: 366328490.

Date/timePositionNaut miles runAvg speedWind from/ knotsBaromVisibWave heightAir tempDewpointWater temp
2015-Mar-30 01:33N 33°37' W 117°55'0 0.0
2015-Mar-30 00:32N 33°37' W 117°55'0 0.0
2015-Mar-29 22:32N 33°37' W 117°55'0 0.0
2015-Mar-29 21:32N 33°37' W 117°55'0 0.0
2015-Mar-29 20:30N 33°37' W 117°55'0 0.0
2015-Mar-29 18:32N 33°37' W 117°55'0 0.0
2015-Mar-29 17:08N 33°37' W 117°55'0 0.0
2015-Mar-29 14:26N 33°37' W 117°55'0 0.0
2015-Mar-29 07:09N 33°37' W 117°55'0 0.0
2015-Mar-29 06:33N 33°37' W 117°55'0 0.0
2015-Mar-29 05:33N 33°37' W 117°55'0 0.0
2015-Mar-29 04:33N 33°37' W 117°55'0 0.0
2015-Mar-29 03:33N 33°37' W 117°55'0 0.0
2015-Mar-29 02:29N 33°37' W 117°55'0 0.0
2015-Mar-29 01:08N 33°37' W 117°55'0 0.0
2015-Mar-29 00:32N 33°37' W 117°55'0 0.0
2015-Mar-28 23:32N 33°37' W 117°55'0 0.0
2015-Mar-28 22:26N 33°37' W 117°55'1 1.3
2015-Mar-28 21:33N 33°36' W 117°54'7 7.3
2015-Mar-28 20:34N 33°30' W 117°58'43 8.5
2015-Mar-28 15:31N 32°57' W 118°31'5 5.2
2015-Mar-28 14:33N 32°54' W 118°26'3 3.0
2015-Mar-28 13:33N 32°52' W 118°24'0 0.0
2015-Mar-28 12:30N 32°52' W 118°24'0 0.0
2015-Mar-28 11:24N 32°52' W 118°24'0 0.1
2015-Mar-28 10:27N 32°51' W 118°24'0 0.0
2015-Mar-28 09:09N 32°52' W 118°24'0 0.0
2015-Mar-28 08:24N 32°52' W 118°24'0 0.0
2015-Mar-28 07:33N 32°52' W 118°24'0 0.0
2015-Mar-28 06:30N 32°52' W 118°24'0 0.0
2015-Mar-28 05:32N 32°52' W 118°24'0 0.0
2015-Mar-28 04:03N 32°52' W 118°24'0 0.1
2015-Mar-28 03:33N 32°51' W 118°24'0 0.0
2015-Mar-28 02:33N 32°51' W 118°24'3 2.9
2015-Mar-28 01:33N 32°54' W 118°23'10 9.4
2015-Mar-28 00:33N 33°03' W 118°17'9 8.4
2015-Mar-27 23:26N 33°10' W 118°11'7 7.9
2015-Mar-27 22:33N 33°16' W 118°06'9 8.7
2015-Mar-27 21:31N 33°24' W 118°01'6 6.5
2015-Mar-27 20:33N 33°29' W 117°58'8 1.5
2015-Mar-27 15:17N 33°37' W 117°55'0 0.0
2015-Mar-27 11:11N 33°37' W 117°55'0 0.0
2015-Mar-27 10:11N 33°37' W 117°55'0 0.0
2015-Mar-27 09:05N 33°37' W 117°55'0 0.0
2015-Mar-27 08:11N 33°37' W 117°55'0 0.0
2015-Mar-27 07:29N 33°37' W 117°55'0 0.0
2015-Mar-27 06:05N 33°37' W 117°55'0 0.0
2015-Mar-27 05:29N 33°37' W 117°55'0 0.0
2015-Mar-27 04:11N 33°37' W 117°55'0 0.0
2015-Mar-26 22:23N 33°37' W 117°55'0 0.0
2015-Mar-26 19:05N 33°37' W 117°55'0 0.0
2015-Mar-26 17:29N 33°37' W 117°55'0 0.0
2015-Mar-26 12:05N 33°37' W 117°55'0 0.0
2015-Mar-26 11:11N 33°37' W 117°55'0 0.0
2015-Mar-26 10:23N 33°37' W 117°55'0 0.0
2015-Mar-26 05:17N 33°37' W 117°55'0 0.0
2015-Mar-26 04:29N 33°37' W 117°55'0 0.0
2015-Mar-25 02:26N 33°37' W 117°55'0 0.0
2015-Mar-25 01:08N 33°37' W 117°55'  
2015-Mar-21 04:13N 33°37' W 117°55'0 0.0
2015-Mar-20 22:16N 33°37' W 117°55'  

Dump ship's entire track history